sensor_id;sensor_type;location;lat;lon;timestamp;pressure;altitude;pressure_sealevel;temperature;humidity
10127;BME280;13080;42.608;23.362;2023-03-04T10:11:59;152705.88;;;6.34;83.45
10127;BME280;13080;42.608;23.362;2023-03-04T10:14:34;152748.63;;;6.51;83.17
10127;BME280;13080;42.608;23.362;2023-03-04T10:17:07;152777.13;;;6.62;86.13
10127;BME280;13080;42.608;23.362;2023-03-04T10:19:44;152815.97;;;6.78;82.14
10127;BME280;13080;42.608;23.362;2023-03-04T10:22:19;152813.34;;;6.77;83.79
10127;BME280;13080;42.608;23.362;2023-03-04T10:24:47;152830.19;;;6.83;81.43
10127;BME280;13080;42.608;23.362;2023-03-04T10:27:17;152885.88;;;7.05;81.35
10127;BME280;13080;42.608;23.362;2023-03-04T10:29:45;152935.13;;;7.25;79.96
10127;BME280;13080;42.608;23.362;2023-03-04T10:32:13;152923.47;;;7.20;76.61
10127;BME280;13080;42.608;23.362;2023-03-04T10:34:41;152968.81;;;7.38;78.64
10127;BME280;13080;42.608;23.362;2023-03-04T10:37:08;152999.88;;;7.50;78.94
10127;BME280;13080;42.608;23.362;2023-03-04T10:39:37;152979.19;;;7.42;78.93
10127;BME280;13080;42.608;23.362;2023-03-04T10:42:08;152946.78;;;7.29;78.05
10127;BME280;13080;42.608;23.362;2023-03-04T10:44:53;152883.31;;;7.04;80.71
10127;BME280;13080;42.608;23.362;2023-03-04T10:47:21;152884.59;;;7.05;82.07
10127;BME280;13080;42.608;23.362;2023-03-04T10:49:50;152867.78;;;6.98;80.97
10127;BME280;13080;42.608;23.362;2023-03-04T10:52:25;152858.69;;;6.95;82.23
10127;BME280;13080;42.608;23.362;2023-03-04T10:54:53;152900.16;;;7.11;83.15
10127;BME280;13080;42.608;23.362;2023-03-04T10:57:24;152849.66;;;6.91;84.07
10127;BME280;13080;42.608;23.362;2023-03-04T10:59:56;152897.53;;;7.10;83.21
10127;BME280;13080;42.608;23.362;2023-03-04T11:02:25;152923.47;;;7.20;82.95
10127;BME280;13080;42.608;23.362;2023-03-04T11:05:04;152914.38;;;7.17;83.13
10127;BME280;13080;42.608;23.362;2023-03-04T11:07:35;152953.25;;;7.32;81.43
10127;BME280;13080;42.608;23.362;2023-03-04T11:10:09;152931.22;;;7.23;81.50
10127;BME280;13080;42.608;23.362;2023-03-04T11:12:37;152985.66;;;7.45;79.66
10127;BME280;13080;42.608;23.362;2023-03-04T11:15:17;152954.53;;;7.33;78.62
10127;BME280;13080;42.608;23.362;2023-03-04T11:17:47;152907.91;;;7.14;79.98
10127;BME280;13080;42.608;23.362;2023-03-04T11:20:21;152867.78;;;6.98;82.13
10127;BME280;13080;42.608;23.362;2023-03-04T11:22:51;152889.78;;;7.07;82.41
10127;BME280;13080;42.608;23.362;2023-03-04T11:25:25;152918.28;;;7.18;79.16
10127;BME280;13080;42.608;23.362;2023-03-04T11:27:54;152915.66;;;7.17;80.05
10127;BME280;13080;42.608;23.362;2023-03-04T11:30:40;152896.25;;;7.10;81.34
10127;BME280;13080;42.608;23.362;2023-03-04T11:33:18;152936.41;;;7.25;81.60
10127;BME280;13080;42.608;23.362;2023-03-04T11:35:56;152963.63;;;7.36;80.85
10127;BME280;13080;42.608;23.362;2023-03-04T11:38:28;152999.88;;;7.50;82.18
10127;BME280;13080;42.608;23.362;2023-03-04T11:41:00;153045.25;;;7.68;78.88
10127;BME280;13080;42.608;23.362;2023-03-04T11:43:34;153037.47;;;7.65;78.24
10127;BME280;13080;42.608;23.362;2023-03-04T11:46:23;153062.09;;;7.75;77.73
10127;BME280;13080;42.608;23.362;2023-03-04T11:49:07;153027.09;;;7.61;77.24
10127;BME280;13080;42.608;23.362;2023-03-04T11:51:40;152990.84;;;7.47;79.08
10127;BME280;13080;42.608;23.362;2023-03-04T11:54:22;152979.19;;;7.42;79.73
10127;BME280;13080;42.608;23.362;2023-03-04T11:56:58;152976.56;;;7.41;79.45
10127;BME280;13080;42.608;23.362;2023-03-04T11:59:33;152959.72;;;7.35;79.20
10127;BME280;13080;42.608;23.362;2023-03-04T12:02:14;152959.72;;;7.35;80.17
10127;BME280;13080;42.608;23.362;2023-03-04T12:08:04;152915.66;;;7.17;80.75
10127;BME280;13080;42.608;23.362;2023-03-04T12:10:41;152917.00;;;7.18;81.21
10127;BME280;13080;42.608;23.362;2023-03-04T12:13:41;152918.28;;;7.18;82.77
10127;BME280;13080;42.608;23.362;2023-03-04T12:16:18;152962.34;;;7.36;82.14
10127;BME280;13080;42.608;23.362;2023-03-04T12:19:00;153001.22;;;7.51;80.32
10127;BME280;13080;42.608;23.362;2023-03-04T12:21:49;152999.88;;;7.50;79.38
10127;BME280;13080;42.608;23.362;2023-03-04T12:27:35;153071.19;;;7.79;79.03
10127;BME280;13080;42.608;23.362;2023-03-04T12:32:46;153045.25;;;7.68;79.55
10127;BME280;13080;42.608;23.362;2023-03-04T12:35:36;153038.78;;;7.66;78.33
10127;BME280;13080;42.608;23.362;2023-03-04T12:38:23;153008.97;;;7.54;78.16
10127;BME280;13080;42.608;23.362;2023-03-04T12:40:57;153006.34;;;7.53;77.68
10127;BME280;13080;42.608;23.362;2023-03-04T12:43:39;153010.25;;;7.55;78.04
10127;BME280;13080;42.608;23.362;2023-03-04T12:46:20;152959.72;;;7.35;78.41
10127;BME280;13080;42.608;23.362;2023-03-04T12:49:06;152959.72;;;7.35;79.83
10127;BME280;13080;42.608;23.362;2023-03-04T12:51:43;152932.50;;;7.24;79.86
10127;BME280;13080;42.608;23.362;2023-03-04T12:54:20;152931.22;;;7.23;81.58
10127;BME280;13080;42.608;23.362;2023-03-04T12:56:53;152941.59;;;7.27;81.88
10127;BME280;13080;42.608;23.362;2023-03-04T12:59:24;152971.38;;;7.39;80.38
10127;BME280;13080;42.608;23.362;2023-03-04T13:01:55;152962.34;;;7.36;80.19
10127;BME280;13080;42.608;23.362;2023-03-04T13:04:28;152977.84;;;7.42;80.56
10127;BME280;13080;42.608;23.362;2023-03-04T13:07:08;153018.03;;;7.58;79.92
10127;BME280;13080;42.608;23.362;2023-03-04T13:09:42;153038.78;;;7.66;79.69
10127;BME280;13080;42.608;23.362;2023-03-04T13:12:15;153073.75;;;7.80;78.17
10127;BME280;13080;42.608;23.362;2023-03-04T13:17:44;153055.63;;;7.73;78.50
10127;BME280;13080;42.608;23.362;2023-03-04T13:20:19;152984.38;;;7.44;79.19
10127;BME280;13080;42.608;23.362;2023-03-04T13:22:54;152993.41;;;7.48;78.49
10127;BME280;13080;42.608;23.362;2023-03-04T13:25:36;152985.66;;;7.45;79.62
10127;BME280;13080;42.608;23.362;2023-03-04T13:28:22;152977.84;;;7.42;80.17
10127;BME280;13080;42.608;23.362;2023-03-04T13:31:17;152959.72;;;7.35;79.63
10127;BME280;13080;42.608;23.362;2023-03-04T13:33:57;152971.38;;;7.39;79.36
10127;BME280;13080;42.608;23.362;2023-03-04T13:36:51;153014.16;;;7.56;78.96
10127;BME280;13080;42.608;23.362;2023-03-04T13:39:38;152984.38;;;7.44;78.87
10127;BME280;13080;42.608;23.362;2023-03-04T13:42:39;153008.97;;;7.54;78.44
10127;BME280;13080;42.608;23.362;2023-03-04T13:45:32;152986.94;;;7.45;79.46
10127;BME280;13080;42.608;23.362;2023-03-04T13:47:59;152985.66;;;7.45;80.28
10127;BME280;13080;42.608;23.362;2023-03-04T13:50:31;152985.66;;;7.45;80.26
10127;BME280;13080;42.608;23.362;2023-03-04T13:55:43;153014.16;;;7.56;78.19
10127;BME280;13080;42.608;23.362;2023-03-04T13:58:19;153041.38;;;7.67;78.57
10127;BME280;13080;42.608;23.362;2023-03-04T14:00:48;153029.72;;;7.62;78.87
10127;BME280;13080;42.608;23.362;2023-03-04T14:03:21;153034.88;;;7.64;79.65
10127;BME280;13080;42.608;23.362;2023-03-04T14:06:15;153050.44;;;7.70;78.47
10127;BME280;13080;42.608;23.362;2023-03-04T14:08:42;153024.53;;;7.60;78.74
10127;BME280;13080;42.608;23.362;2023-03-04T14:11:13;153038.78;;;7.66;79.85
10127;BME280;13080;42.608;23.362;2023-03-04T14:13:41;153056.91;;;7.73;79.33
10127;BME280;13080;42.608;23.362;2023-03-04T14:16:08;153069.91;;;7.78;78.80
10127;BME280;13080;42.608;23.362;2023-03-04T14:18:35;153098.41;;;7.89;77.50
10127;BME280;13080;42.608;23.362;2023-03-04T14:21:03;153102.25;;;7.91;78.26
10127;BME280;13080;42.608;23.362;2023-03-04T14:23:32;153095.78;;;7.88;78.12
10127;BME280;13080;42.608;23.362;2023-03-04T14:26:08;153103.59;;;7.91;78.07
10127;BME280;13080;42.608;23.362;2023-03-04T14:28:43;153120.44;;;7.98;77.23
10127;BME280;13080;42.608;23.362;2023-03-04T14:31:16;153064.72;;;7.76;77.78
10127;BME280;13080;42.608;23.362;2023-03-04T14:33:45;153067.28;;;7.77;78.44
10127;BME280;13080;42.608;23.362;2023-03-04T14:36:17;153056.91;;;7.73;78.47
10127;BME280;13080;42.608;23.362;2023-03-04T14:38:50;153066.00;;;7.77;79.33
10127;BME280;13080;42.608;23.362;2023-03-04T14:41:20;153067.28;;;7.77;79.61
10127;BME280;13080;42.608;23.362;2023-03-04T14:43:54;153103.59;;;7.91;78.88
10127;BME280;13080;42.608;23.362;2023-03-04T14:46:23;153099.69;;;7.90;77.89
10127;BME280;13080;42.608;23.362;2023-03-04T14:48:53;153112.63;;;7.95;77.95
10127;BME280;13080;42.608;23.362;2023-03-04T14:51:35;153103.59;;;7.91;77.93
10127;BME280;13080;42.608;23.362;2023-03-04T14:54:03;153120.44;;;7.98;77.81
10127;BME280;13080;42.608;23.362;2023-03-04T14:56:33;153073.75;;;7.80;77.81
10127;BME280;13080;42.608;23.362;2023-03-04T14:59:02;153023.22;;;7.60;79.42
10127;BME280;13080;42.608;23.362;2023-03-04T15:01:31;153018.03;;;7.58;79.98
10127;BME280;13080;42.608;23.362;2023-03-04T15:04:00;152971.38;;;7.39;79.73
10127;BME280;13080;42.608;23.362;2023-03-04T15:06:29;152957.16;;;7.34;80.44
10127;BME280;13080;42.608;23.362;2023-03-04T15:08:59;152936.41;;;7.25;82.06
10127;BME280;13080;42.608;23.362;2023-03-04T15:11:31;152906.63;;;7.14;81.80
10127;BME280;13080;42.608;23.362;2023-03-04T15:13:59;152928.66;;;7.22;82.16
10127;BME280;13080;42.608;23.362;2023-03-04T15:16:52;152904.03;;;7.13;84.18
10127;BME280;13080;42.608;23.362;2023-03-04T15:19:24;152887.19;;;7.06;82.71
10127;BME280;13080;42.608;23.362;2023-03-04T15:22:02;152871.66;;;7.00;83.51
10127;BME280;13080;42.608;23.362;2023-03-04T15:24:29;152844.47;;;6.89;84.71
10127;BME280;13080;42.608;23.362;2023-03-04T15:26:55;152861.31;;;6.96;84.72
10127;BME280;13080;42.608;23.362;2023-03-04T15:29:22;152854.81;;;6.93;84.50
10127;BME280;13080;42.608;23.362;2023-03-04T15:31:50;152822.44;;;6.80;85.00
10127;BME280;13080;42.608;23.362;2023-03-04T15:34:18;152810.78;;;6.76;85.98
10127;BME280;13080;42.608;23.362;2023-03-04T15:36:48;152805.59;;;6.74;84.27
10127;BME280;13080;42.608;23.362;2023-03-04T15:39:16;152771.94;;;6.60;85.02
10127;BME280;13080;42.608;23.362;2023-03-04T15:41:43;152737.00;;;6.47;86.25
10127;BME280;13080;42.608;23.362;2023-03-04T15:44:12;152703.31;;;6.33;86.88
10127;BME280;13080;42.608;23.362;2023-03-04T15:46:39;152700.72;;;6.32;89.06
10127;BME280;13080;42.608;23.362;2023-03-04T15:49:07;152682.59;;;6.25;89.45
10127;BME280;13080;42.608;23.362;2023-03-04T15:51:34;152654.13;;;6.14;90.11
10127;BME280;13080;42.608;23.362;2023-03-04T15:54:01;152623.09;;;6.01;90.56
10127;BME280;13080;42.608;23.362;2023-03-04T15:56:29;152608.81;;;5.96;91.48
10127;BME280;13080;42.608;23.362;2023-03-04T15:58:58;152591.94;;;5.89;93.14
10127;BME280;13080;42.608;23.362;2023-03-04T16:01:26;152576.47;;;5.83;93.64
10127;BME280;13080;42.608;23.362;2023-03-04T16:03:53;152558.31;;;5.76;94.44
10127;BME280;13080;42.608;23.362;2023-03-04T16:06:28;152531.16;;;5.65;96.02
10127;BME280;13080;42.608;23.362;2023-03-04T16:08:56;152494.91;;;5.51;96.67
10127;BME280;13080;42.608;23.362;2023-03-04T16:11:25;152475.53;;;5.43;97.35
10127;BME280;13080;42.608;23.362;2023-03-04T16:13:53;152447.06;;;5.32;98.06
10127;BME280;13080;42.608;23.362;2023-03-04T16:16:19;152438.00;;;5.28;98.30
10127;BME280;13080;42.608;23.362;2023-03-04T16:18:46;152418.63;;;5.20;98.72
10127;BME280;13080;42.608;23.362;2023-03-04T16:21:15;152400.47;;;5.13;99.01
10127;BME280;13080;42.608;23.362;2023-03-04T16:23:46;152375.91;;;5.04;99.25
10127;BME280;13080;42.608;23.362;2023-03-04T16:26:19;152365.56;;;4.99;100.00
10127;BME280;13080;42.608;23.362;2023-03-04T16:28:47;152351.38;;;4.94;99.93
10127;BME280;13080;42.608;23.362;2023-03-04T16:31:14;152335.84;;;4.88;100.00
10127;BME280;13080;42.608;23.362;2023-03-04T16:33:42;152306.13;;;4.76;100.00
10127;BME280;13080;42.608;23.362;2023-03-04T16:36:13;152295.78;;;4.72;100.00
10127;BME280;13080;42.608;23.362;2023-03-04T16:38:41;152278.97;;;4.65;100.00
10127;BME280;13080;42.608;23.362;2023-03-04T16:41:11;152275.06;;;4.64;100.00
10127;BME280;13080;42.608;23.362;2023-03-04T16:43:38;152268.59;;;4.61;100.00
10127;BME280;13080;42.608;23.362;2023-03-04T16:46:05;152260.88;;;4.58;100.00
10127;BME280;13080;42.608;23.362;2023-03-04T16:48:32;152271.22;;;4.62;100.00
10127;BME280;13080;42.608;23.362;2023-03-04T16:51:01;152260.88;;;4.58;100.00
10127;BME280;13080;42.608;23.362;2023-03-04T16:53:32;152245.34;;;4.52;100.00
10127;BME280;13080;42.608;23.362;2023-03-04T16:56:04;152223.38;;;4.43;100.00
10127;BME280;13080;42.608;23.362;2023-03-04T16:58:32;152213.03;;;4.39;100.00
10127;BME280;13080;42.608;23.362;2023-03-04T17:00:59;152188.47;;;4.29;100.00
10127;BME280;13080;42.608;23.362;2023-03-04T17:03:26;152160.03;;;4.18;100.00
10127;BME280;13080;42.608;23.362;2023-03-04T17:05:53;152140.69;;;4.10;100.00
10127;BME280;13080;42.608;23.362;2023-03-04T17:08:20;152134.19;;;4.08;100.00
10127;BME280;13080;42.608;23.362;2023-03-04T17:10:46;152113.53;;;4.00;100.00
10127;BME280;13080;42.608;23.362;2023-03-04T17:13:14;152098.03;;;3.93;100.00
10127;BME280;13080;42.608;23.362;2023-03-04T17:15:42;152090.28;;;3.90;100.00
10127;BME280;13080;42.608;23.362;2023-03-04T17:18:11;152076.06;;;3.85;100.00
10127;BME280;13080;42.608;23.362;2023-03-04T17:20:37;152073.50;;;3.84;100.00
10127;BME280;13080;42.608;23.362;2023-03-04T17:23:04;152074.78;;;3.84;100.00
10127;BME280;13080;42.608;23.362;2023-03-04T17:25:31;152065.72;;;3.81;100.00
10127;BME280;13080;42.608;23.362;2023-03-04T17:27:58;152055.38;;;3.77;100.00
10127;BME280;13080;42.608;23.362;2023-03-04T17:30:25;152042.47;;;3.71;100.00
10127;BME280;13080;42.608;23.362;2023-03-04T17:32:53;152047.63;;;3.73;100.00
10127;BME280;13080;42.608;23.362;2023-03-04T17:35:20;152057.97;;;3.78;100.00
10127;BME280;13080;42.608;23.362;2023-03-04T17:37:47;152067.03;;;3.81;100.00
10127;BME280;13080;42.608;23.362;2023-03-04T17:40:14;152073.50;;;3.84;100.00
10127;BME280;13080;42.608;23.362;2023-03-04T17:42:41;152079.94;;;3.86;100.00
10127;BME280;13080;42.608;23.362;2023-03-04T17:45:09;152081.22;;;3.87;100.00
10127;BME280;13080;42.608;23.362;2023-03-04T17:47:36;152085.13;;;3.88;100.00
10127;BME280;13080;42.608;23.362;2023-03-04T17:50:07;152085.13;;;3.88;100.00
10127;BME280;13080;42.608;23.362;2023-03-04T17:52:34;152091.56;;;3.91;100.00
10127;BME280;13080;42.608;23.362;2023-03-04T17:55:00;152094.13;;;3.92;100.00
10127;BME280;13080;42.608;23.362;2023-03-04T17:57:27;152107.09;;;3.97;100.00
10127;BME280;13080;42.608;23.362;2023-03-04T17:59:54;152118.72;;;4.02;100.00
10127;BME280;13080;42.608;23.362;2023-03-04T18:02:22;152118.72;;;4.02;100.00
10127;BME280;13080;42.608;23.362;2023-03-04T18:04:48;152129.00;;;4.06;100.00
10127;BME280;13080;42.608;23.362;2023-03-04T18:07:17;152125.16;;;4.04;100.00
10127;BME280;13080;42.608;23.362;2023-03-04T18:09:43;152134.19;;;4.08;100.00
10127;BME280;13080;42.608;23.362;2023-03-04T18:12:12;152138.06;;;4.09;100.00
10127;BME280;13080;42.608;23.362;2023-03-04T18:14:39;152135.50;;;4.08;100.00
10127;BME280;13080;42.608;23.362;2023-03-04T18:17:05;152140.69;;;4.10;100.00
10127;BME280;13080;42.608;23.362;2023-03-04T18:19:32;152152.31;;;4.15;100.00
10127;BME280;13080;42.608;23.362;2023-03-04T18:21:59;152163.94;;;4.20;100.00
10127;BME280;13080;42.608;23.362;2023-03-04T18:24:27;152162.63;;;4.19;100.00
10127;BME280;13080;42.608;23.362;2023-03-04T18:26:54;152154.88;;;4.16;100.00
10127;BME280;13080;42.608;23.362;2023-03-04T18:29:21;152158.75;;;4.18;100.00
10127;BME280;13080;42.608;23.362;2023-03-04T18:31:48;152157.47;;;4.17;100.00
10127;BME280;13080;42.608;23.362;2023-03-04T18:34:14;152165.22;;;4.20;100.00
10127;BME280;13080;42.608;23.362;2023-03-04T18:36:41;152158.75;;;4.18;100.00
10127;BME280;13080;42.608;23.362;2023-03-04T18:39:08;152158.75;;;4.18;100.00
10127;BME280;13080;42.608;23.362;2023-03-04T18:41:36;152161.31;;;4.19;100.00
10127;BME280;13080;42.608;23.362;2023-03-04T18:44:03;152152.31;;;4.15;100.00
10127;BME280;13080;42.608;23.362;2023-03-04T18:46:35;152156.16;;;4.16;100.00
10127;BME280;13080;42.608;23.362;2023-03-04T18:49:06;152161.31;;;4.19;100.00
10127;BME280;13080;42.608;23.362;2023-03-04T18:51:34;152141.97;;;4.11;100.00
10127;BME280;13080;42.608;23.362;2023-03-04T18:54:01;152149.69;;;4.14;100.00
10127;BME280;13080;42.608;23.362;2023-03-04T18:56:30;152147.13;;;4.13;100.00
10127;BME280;13080;42.608;23.362;2023-03-04T18:59:04;152125.16;;;4.04;100.00
10127;BME280;13080;42.608;23.362;2023-03-04T19:01:32;152112.25;;;3.99;100.00
10127;BME280;13080;42.608;23.362;2023-03-04T19:04:00;152105.75;;;3.96;100.00
10127;BME280;13080;42.608;23.362;2023-03-04T19:06:30;152098.03;;;3.93;100.00
10127;BME280;13080;42.608;23.362;2023-03-04T19:08:57;152090.28;;;3.90;100.00
10127;BME280;13080;42.608;23.362;2023-03-04T19:11:24;152085.13;;;3.88;100.00
10127;BME280;13080;42.608;23.362;2023-03-04T19:13:51;152085.13;;;3.88;100.00
10127;BME280;13080;42.608;23.362;2023-03-04T19:16:19;152077.34;;;3.85;100.00
10127;BME280;13080;42.608;23.362;2023-03-04T19:18:46;152073.50;;;3.84;100.00
10127;BME280;13080;42.608;23.362;2023-03-04T19:21:13;152069.59;;;3.82;100.00
10127;BME280;13080;42.608;23.362;2023-03-04T19:23:40;152061.88;;;3.79;100.00
10127;BME280;13080;42.608;23.362;2023-03-04T19:26:07;152046.34;;;3.73;100.00
10127;BME280;13080;42.608;23.362;2023-03-04T19:28:34;152046.34;;;3.73;100.00
10127;BME280;13080;42.608;23.362;2023-03-04T19:31:03;152041.19;;;3.71;100.00
10127;BME280;13080;42.608;23.362;2023-03-04T19:33:33;152041.19;;;3.71;100.00
10127;BME280;13080;42.608;23.362;2023-03-04T19:36:00;152030.84;;;3.67;100.00
10127;BME280;13080;42.608;23.362;2023-03-04T19:38:28;152025.66;;;3.65;100.00
10127;BME280;13080;42.608;23.362;2023-03-04T19:40:54;152017.94;;;3.62;100.00
10127;BME280;13080;42.608;23.362;2023-03-04T19:43:21;151994.69;;;3.52;100.00
10127;BME280;13080;42.608;23.362;2023-03-04T19:45:51;152001.16;;;3.55;100.00
10127;BME280;13080;42.608;23.362;2023-03-04T19:48:18;152002.44;;;3.56;100.00
10127;BME280;13080;42.608;23.362;2023-03-04T19:50:46;152001.16;;;3.55;100.00
10127;BME280;13080;42.608;23.362;2023-03-04T19:53:13;151999.88;;;3.54;100.00
10127;BME280;13080;42.608;23.362;2023-03-04T19:55:43;151998.53;;;3.54;100.00
10127;BME280;13080;42.608;23.362;2023-03-04T19:58:09;152011.47;;;3.59;100.00
10127;BME280;13080;42.608;23.362;2023-03-04T20:00:36;152015.31;;;3.61;100.00
10127;BME280;13080;42.608;23.362;2023-03-04T20:03:03;152020.50;;;3.63;100.00
10127;BME280;13080;42.608;23.362;2023-03-04T20:05:32;152025.66;;;3.65;100.00
10127;BME280;13080;42.608;23.362;2023-03-04T20:08:00;152034.72;;;3.68;100.00
10127;BME280;13080;42.608;23.362;2023-03-04T20:10:30;152037.28;;;3.69;100.00
10127;BME280;13080;42.608;23.362;2023-03-04T20:12:57;152036.00;;;3.69;100.00
10127;BME280;13080;42.608;23.362;2023-03-04T20:15:23;152048.91;;;3.74;100.00
10127;BME280;13080;42.608;23.362;2023-03-04T20:17:50;152054.09;;;3.76;100.00
10127;BME280;13080;42.608;23.362;2023-03-04T20:20:17;152061.88;;;3.79;100.00
10127;BME280;13080;42.608;23.362;2023-03-04T20:22:44;152050.25;;;3.74;100.00
10127;BME280;13080;42.608;23.362;2023-03-04T20:25:12;152073.50;;;3.84;100.00
10127;BME280;13080;42.608;23.362;2023-03-04T20:27:39;152082.50;;;3.87;100.00
10127;BME280;13080;42.608;23.362;2023-03-04T20:30:06;152094.13;;;3.92;100.00
10127;BME280;13080;42.608;23.362;2023-03-04T20:32:33;152099.31;;;3.94;100.00
10127;BME280;13080;42.608;23.362;2023-03-04T20:35:00;152114.81;;;4.00;100.00
10127;BME280;13080;42.608;23.362;2023-03-04T20:37:27;152126.44;;;4.05;100.00
10127;BME280;13080;42.608;23.362;2023-03-04T20:39:53;152134.19;;;4.08;100.00
10127;BME280;13080;42.608;23.362;2023-03-04T20:42:23;152143.25;;;4.11;100.00
10127;BME280;13080;42.608;23.362;2023-03-04T20:44:50;152139.34;;;4.10;100.00
10127;BME280;13080;42.608;23.362;2023-03-04T20:47:17;152131.63;;;4.07;100.00
10127;BME280;13080;42.608;23.362;2023-03-04T20:49:43;152134.19;;;4.08;100.00
10127;BME280;13080;42.608;23.362;2023-03-04T20:52:10;152126.44;;;4.05;100.00
10127;BME280;13080;42.608;23.362;2023-03-04T20:54:37;152116.09;;;4.01;100.00
10127;BME280;13080;42.608;23.362;2023-03-04T20:57:05;152134.19;;;4.08;100.00
10127;BME280;13080;42.608;23.362;2023-03-04T20:59:34;152108.38;;;3.98;100.00
10127;BME280;13080;42.608;23.362;2023-03-04T21:02:02;152129.00;;;4.06;100.00
10127;BME280;13080;42.608;23.362;2023-03-04T21:04:29;152123.88;;;4.04;100.00
10127;BME280;13080;42.608;23.362;2023-03-04T21:06:58;152127.72;;;4.05;100.00
10127;BME280;13080;42.608;23.362;2023-03-04T21:09:25;152136.78;;;4.09;100.00
10127;BME280;13080;42.608;23.362;2023-03-04T21:11:52;152140.69;;;4.10;100.00
10127;BME280;13080;42.608;23.362;2023-03-04T21:14:21;152140.69;;;4.10;100.00
10127;BME280;13080;42.608;23.362;2023-03-04T21:16:51;152147.13;;;4.13;100.00
10127;BME280;13080;42.608;23.362;2023-03-04T21:19:21;152153.59;;;4.15;100.00
10127;BME280;13080;42.608;23.362;2023-03-04T21:21:49;152154.88;;;4.16;100.00
10127;BME280;13080;42.608;23.362;2023-03-04T21:24:18;152161.31;;;4.19;100.00
10127;BME280;13080;42.608;23.362;2023-03-04T21:26:45;152170.41;;;4.22;100.00
10127;BME280;13080;42.608;23.362;2023-03-04T21:29:13;152166.50;;;4.21;100.00
10127;BME280;13080;42.608;23.362;2023-03-04T21:31:42;152170.41;;;4.22;100.00
10127;BME280;13080;42.608;23.362;2023-03-04T21:34:15;152161.31;;;4.19;100.00
10127;BME280;13080;42.608;23.362;2023-03-04T21:36:42;152156.16;;;4.16;100.00
10127;BME280;13080;42.608;23.362;2023-03-04T21:39:13;152166.50;;;4.21;100.00
10127;BME280;13080;42.608;23.362;2023-03-04T21:41:40;152157.47;;;4.17;100.00
10127;BME280;13080;42.608;23.362;2023-03-04T21:44:07;152162.63;;;4.19;100.00
10127;BME280;13080;42.608;23.362;2023-03-04T21:46:34;152167.78;;;4.21;100.00
10127;BME280;13080;42.608;23.362;2023-03-04T21:49:01;152150.97;;;4.14;100.00
10127;BME280;13080;42.608;23.362;2023-03-04T21:51:30;152162.63;;;4.19;100.00
10127;BME280;13080;42.608;23.362;2023-03-04T21:53:56;152167.78;;;4.21;100.00
10127;BME280;13080;42.608;23.362;2023-03-04T21:56:23;152163.94;;;4.20;100.00
10127;BME280;13080;42.608;23.362;2023-03-04T21:58:50;152171.69;;;4.23;100.00
10127;BME280;13080;42.608;23.362;2023-03-04T22:01:18;152171.69;;;4.23;100.00
10127;BME280;13080;42.608;23.362;2023-03-04T22:03:45;152166.50;;;4.21;100.00
10127;BME280;13080;42.608;23.362;2023-03-04T22:06:14;152166.50;;;4.21;100.00
10127;BME280;13080;42.608;23.362;2023-03-04T22:08:43;152167.78;;;4.21;100.00
10127;BME280;13080;42.608;23.362;2023-03-04T22:11:10;152169.13;;;4.22;100.00
10127;BME280;13080;42.608;23.362;2023-03-04T22:13:37;152170.41;;;4.22;100.00
10127;BME280;13080;42.608;23.362;2023-03-04T22:16:04;152165.22;;;4.20;100.00
10127;BME280;13080;42.608;23.362;2023-03-04T22:18:31;152162.63;;;4.19;100.00
10127;BME280;13080;42.608;23.362;2023-03-04T22:20:59;152157.47;;;4.17;100.00
10127;BME280;13080;42.608;23.362;2023-03-04T22:23:27;152160.03;;;4.18;100.00
10127;BME280;13080;42.608;23.362;2023-03-04T22:25:55;152165.22;;;4.20;100.00
10127;BME280;13080;42.608;23.362;2023-03-04T22:28:23;152162.63;;;4.19;100.00
10127;BME280;13080;42.608;23.362;2023-03-04T22:30:53;152162.63;;;4.19;100.00
10127;BME280;13080;42.608;23.362;2023-03-04T22:33:19;152154.88;;;4.16;100.00
10127;BME280;13080;42.608;23.362;2023-03-04T22:35:46;152149.69;;;4.14;100.00
10127;BME280;13080;42.608;23.362;2023-03-04T22:38:13;152144.53;;;4.12;100.00
10127;BME280;13080;42.608;23.362;2023-03-04T22:40:40;152139.34;;;4.10;100.00
10127;BME280;13080;42.608;23.362;2023-03-04T22:43:08;152144.53;;;4.12;100.00
10127;BME280;13080;42.608;23.362;2023-03-04T22:45:35;152158.75;;;4.18;100.00
10127;BME280;13080;42.608;23.362;2023-03-04T22:48:02;152160.03;;;4.18;100.00
10127;BME280;13080;42.608;23.362;2023-03-04T22:50:29;152160.03;;;4.18;100.00
10127;BME280;13080;42.608;23.362;2023-03-04T22:52:55;152147.13;;;4.13;100.00
10127;BME280;13080;42.608;23.362;2023-03-04T22:55:22;152143.25;;;4.11;100.00
10127;BME280;13080;42.608;23.362;2023-03-04T22:57:49;152139.34;;;4.10;100.00
10127;BME280;13080;42.608;23.362;2023-03-04T23:00:21;152134.19;;;4.08;100.00
10127;BME280;13080;42.608;23.362;2023-03-04T23:02:48;152136.78;;;4.09;100.00
10127;BME280;13080;42.608;23.362;2023-03-04T23:05:16;152134.19;;;4.08;100.00
10127;BME280;13080;42.608;23.362;2023-03-04T23:07:45;152131.63;;;4.07;100.00
10127;BME280;13080;42.608;23.362;2023-03-04T23:10:14;152125.16;;;4.04;100.00
10127;BME280;13080;42.608;23.362;2023-03-04T23:12:42;152120.00;;;4.02;100.00
10127;BME280;13080;42.608;23.362;2023-03-04T23:15:10;152118.72;;;4.02;100.00
10127;BME280;13080;42.608;23.362;2023-03-04T23:17:39;152114.81;;;4.00;100.00
10127;BME280;13080;42.608;23.362;2023-03-04T23:20:09;152105.75;;;3.96;100.00
10127;BME280;13080;42.608;23.362;2023-03-04T23:22:36;152109.66;;;3.98;100.00
10127;BME280;13080;42.608;23.362;2023-03-04T23:25:04;152103.19;;;3.95;100.00
10127;BME280;13080;42.608;23.362;2023-03-04T23:27:30;152096.75;;;3.93;100.00